Time,TemperatureF,DewpointF,PressureIn,WindDirection,WindDirectionDegrees,WindSpeedMPH,WindSpeedGustMPH,Humidity,HourlyPrecipIn,Conditions,Clouds,dailyrainin,SoftwareType,DateUTC
2013-04-06 00:06:00,46.8,46.0,30.11,NNE,15,0.0,0.0,97,0.00,,,0.00,weatherlink.com 1.10,2013-04-06 05:06:00,
2013-04-06 00:21:00,46.3,46.0,30.11,NNE,15,0.0,0.0,97,0.00,,,0.00,weatherlink.com 1.10,2013-04-06 05:21:00,
2013-04-06 00:37:00,45.9,45.0,30.11,NNE,15,0.0,0.0,97,0.00,,,0.00,weatherlink.com 1.10,2013-04-06 05:37:00,
2013-04-06 00:51:00,45.6,45.0,30.11,NNE,15,0.0,0.0,97,0.00,,,0.00,weatherlink.com 1.10,2013-04-06 05:51:00,
2013-04-06 01:07:00,45.3,45.0,30.12,NNE,15,0.0,1.0,97,0.00,,,0.00,weatherlink.com 1.10,2013-04-06 06:07:00,
2013-04-06 01:22:00,45.1,44.0,30.12,NNE,15,0.0,0.0,97,0.00,,,0.00,weatherlink.com 1.10,2013-04-06 06:22:00,
2013-04-06 01:37:00,44.8,44.0,30.12,NNE,15,0.0,0.0,97,0.00,,,0.00,weatherlink.com 1.10,2013-04-06 06:37:00,
2013-04-06 01:52:00,44.6,44.0,30.11,NNE,15,0.0,0.0,98,0.00,,,0.00,weatherlink.com 1.10,2013-04-06 06:52:00,
2013-04-06 02:07:00,44.8,44.0,30.09,NNE,15,0.0,1.0,98,0.00,,,0.00,weatherlink.com 1.10,2013-04-06 07:07:00,
2013-04-06 02:22:00,44.4,44.0,30.09,NNE,15,0.0,1.0,98,0.00,,,0.00,weatherlink.com 1.10,2013-04-06 07:22:00,
2013-04-06 02:52:00,43.7,43.0,30.10,NNE,15,0.0,0.0,98,0.00,,,0.00,weatherlink.com 1.10,2013-04-06 07:52:00,
2013-04-06 03:07:00,43.4,43.0,30.10,NNE,15,0.0,0.0,98,0.00,,,0.00,weatherlink.com 1.10,2013-04-06 08:07:00,
2013-04-06 03:22:00,43.3,43.0,30.10,NNE,15,0.0,0.0,98,0.00,,,0.00,weatherlink.com 1.10,2013-04-06 08:22:00,
2013-04-06 03:52:00,43.0,43.0,30.09,NNE,15,0.0,0.0,98,0.00,,,0.00,weatherlink.com 1.10,2013-04-06 08:52:00,
2013-04-06 04:07:00,42.7,42.0,30.09,NNE,15,0.0,0.0,98,0.00,,,0.00,weatherlink.com 1.10,2013-04-06 09:07:00,
2013-04-06 04:22:00,42.6,42.0,30.09,NNE,15,0.0,0.0,98,0.00,,,0.00,weatherlink.com 1.10,2013-04-06 09:22:00,
2013-04-06 04:37:00,42.5,42.0,30.10,NNE,15,0.0,0.0,98,0.00,,,0.00,weatherlink.com 1.10,2013-04-06 09:37:00,
2013-04-06 04:52:00,42.3,42.0,30.10,NNE,15,0.0,0.0,98,0.00,,,0.00,weatherlink.com 1.10,2013-04-06 09:52:00,
2013-04-06 05:07:00,42.1,42.0,30.10,NNE,15,0.0,0.0,98,0.00,,,0.00,weatherlink.com 1.10,2013-04-06 10:07:00,
2013-04-06 05:37:00,41.8,41.0,30.10,NNE,15,0.0,0.0,98,0.00,,,0.00,weatherlink.com 1.10,2013-04-06 10:37:00,
2013-04-06 05:52:00,41.4,41.0,30.10,NNE,15,0.0,0.0,98,0.00,,,0.00,weatherlink.com 1.10,2013-04-06 10:52:00,
2013-04-06 06:07:00,41.1,41.0,30.10,NNE,15,0.0,0.0,98,0.00,,,0.00,weatherlink.com 1.10,2013-04-06 11:07:00,
2013-04-06 06:22:00,41.2,41.0,30.10,NNE,15,0.0,0.0,98,0.00,,,0.00,weatherlink.com 1.10,2013-04-06 11:22:00,
2013-04-06 06:37:00,41.1,41.0,30.11,NNE,15,0.0,0.0,99,0.00,,,0.00,weatherlink.com 1.10,2013-04-06 11:37:00,
2013-04-06 06:52:00,41.1,41.0,30.11,NNE,15,0.0,0.0,99,0.00,,,0.00,weatherlink.com 1.10,2013-04-06 11:52:00,
2013-04-06 07:07:00,41.2,41.0,30.11,NNE,15,0.0,0.0,99,0.00,,,0.00,weatherlink.com 1.10,2013-04-06 12:07:00,
2013-04-06 07:22:00,41.6,41.0,30.11,NNE,15,0.0,0.0,99,0.00,,,0.00,weatherlink.com 1.10,2013-04-06 12:22:00,
2013-04-06 07:37:00,42.7,43.0,30.11,NNE,15,0.0,0.0,99,0.00,,,0.00,weatherlink.com 1.10,2013-04-06 12:37:00,
2013-04-06 07:52:00,44.2,44.0,30.11,NNE,15,0.0,0.0,99,0.00,,,0.00,weatherlink.com 1.10,2013-04-06 12:52:00,
2013-04-06 08:07:00,45.9,46.0,30.12,NNE,15,1.0,2.0,99,0.00,,,0.00,weatherlink.com 1.10,2013-04-06 13:07:00,
2013-04-06 08:37:00,49.4,49.0,30.12,ESE,111,2.0,3.0,100,0.00,,,0.00,weatherlink.com 1.10,2013-04-06 13:37:00,
2013-04-06 08:52:00,51.5,52.0,30.12,ESE,123,2.0,3.0,100,0.00,,,0.00,weatherlink.com 1.10,2013-04-06 13:52:00,
2013-04-06 09:08:00,54.3,54.0,30.11,ESE,106,0.0,7.0,100,0.00,,,0.00,weatherlink.com 1.10,2013-04-06 14:08:00,
2013-04-06 09:22:00,58.5,54.0,30.11,SE,131,3.0,7.0,86,0.01,,,0.01,weatherlink.com 1.10,2013-04-06 14:22:00,
2013-04-06 09:37:00,61.1,55.0,30.13,ESE,115,3.0,6.0,79,0.01,,,0.01,weatherlink.com 1.10,2013-04-06 14:37:00,
2013-04-06 09:53:00,63.3,55.0,30.13,South,178,2.0,7.0,74,0.01,,,0.01,weatherlink.com 1.10,2013-04-06 14:53:00,
2013-04-06 10:08:00,64.9,55.0,30.13,SSW,194,4.0,10.0,71,0.01,,,0.01,weatherlink.com 1.10,2013-04-06 15:08:00,
2013-04-06 10:23:00,65.9,54.0,30.13,SSE,159,6.0,8.0,65,0.00,,,0.01,weatherlink.com 1.10,2013-04-06 15:23:00,
2013-04-06 10:38:00,66.8,54.0,30.14,SE,144,4.0,12.0,64,0.00,,,0.01,weatherlink.com 1.10,2013-04-06 15:38:00,
2013-04-06 10:53:00,68.2,54.0,30.12,East,84,2.0,12.0,61,0.00,,,0.01,weatherlink.com 1.10,2013-04-06 15:53:00,
2013-04-06 11:08:00,68.5,52.0,30.12,ESE,106,4.0,7.0,56,0.00,,,0.01,weatherlink.com 1.10,2013-04-06 16:08:00,
2013-04-06 11:23:00,68.6,53.0,30.13,SE,134,5.0,10.0,58,0.00,,,0.01,weatherlink.com 1.10,2013-04-06 16:23:00,
2013-04-06 11:38:00,69.3,52.0,30.13,ESE,123,3.0,9.0,55,0.00,,,0.01,weatherlink.com 1.10,2013-04-06 16:38:00,
2013-04-06 11:53:00,69.6,54.0,30.13,SSW,198,5.0,14.0,58,0.00,,,0.01,weatherlink.com 1.10,2013-04-06 16:53:00,
2013-04-06 12:08:00,70.1,54.0,30.13,SSE,162,3.0,12.0,56,0.00,,,0.01,weatherlink.com 1.10,2013-04-06 17:08:00,
2013-04-06 12:23:00,70.4,53.0,30.12,SE,128,2.0,10.0,55,0.00,,,0.01,weatherlink.com 1.10,2013-04-06 17:23:00,
2013-04-06 12:38:00,70.9,53.0,30.13,South,187,5.0,11.0,53,0.00,,,0.01,weatherlink.com 1.10,2013-04-06 17:38:00,
2013-04-06 12:53:00,70.9,51.0,30.12,SSE,147,1.0,13.0,50,0.00,,,0.01,weatherlink.com 1.10,2013-04-06 17:53:00,
2013-04-06 13:08:00,72.3,51.0,30.12,SW,217,9.0,12.0,48,0.00,,,0.01,weatherlink.com 1.10,2013-04-06 18:08:00,
2013-04-06 13:23:00,73.2,54.0,30.11,SSW,200,5.0,10.0,51,0.00,,,0.01,weatherlink.com 1.10,2013-04-06 18:23:00,
2013-04-06 13:53:00,72.9,52.0,30.09,SW,214,5.0,12.0,48,0.00,,,0.01,weatherlink.com 1.10,2013-04-06 18:53:00,
2013-04-06 14:09:00,73.1,53.0,30.09,SW,219,6.0,12.0,50,0.00,,,0.01,weatherlink.com 1.10,2013-04-06 19:09:00,
2013-04-06 14:23:00,73.6,53.0,30.08,SSE,163,2.0,9.0,48,0.00,,,0.01,weatherlink.com 1.10,2013-04-06 19:23:00,
2013-04-06 14:38:00,73.8,54.0,30.07,SE,132,7.0,8.0,51,0.00,,,0.01,weatherlink.com 1.10,2013-04-06 19:38:00,
2013-04-06 14:53:00,73.1,53.0,30.06,SE,143,4.0,8.0,50,0.00,,,0.01,weatherlink.com 1.10,2013-04-06 19:53:00,
2013-04-06 16:08:00,74.8,56.0,30.04,SE,146,2.0,10.0,52,0.00,,,0.01,weatherlink.com 1.10,2013-04-06 21:08:00,
2013-04-06 16:24:00,73.5,55.0,30.03,SW,226,4.0,16.0,53,0.00,,,0.01,weatherlink.com 1.10,2013-04-06 21:24:00,
2013-04-06 16:39:00,73.5,56.0,30.03,SE,140,2.0,8.0,55,0.00,,,0.01,weatherlink.com 1.10,2013-04-06 21:39:00,
2013-04-06 16:54:00,73.9,58.0,30.02,South,177,1.0,8.0,57,0.00,,,0.01,weatherlink.com 1.10,2013-04-06 21:54:00,
2013-04-06 17:24:00,73.5,56.0,30.02,SSE,152,3.0,6.0,55,0.00,,,0.01,weatherlink.com 1.10,2013-04-06 22:24:00,
2013-04-06 17:39:00,73.3,56.0,30.02,South,184,4.0,9.0,55,0.00,,,0.01,weatherlink.com 1.10,2013-04-06 22:39:00,
2013-04-06 17:54:00,71.7,56.0,30.02,South,173,0.0,8.0,58,0.00,,,0.01,weatherlink.com 1.10,2013-04-06 22:54:00,
2013-04-06 18:09:00,71.6,57.0,30.03,SW,219,4.0,12.0,60,0.00,,,0.01,weatherlink.com 1.10,2013-04-06 23:09:00,
2013-04-06 18:24:00,70.8,56.0,30.02,SSE,150,5.0,7.0,60,0.00,,,0.01,weatherlink.com 1.10,2013-04-06 23:24:00,
2013-04-06 18:39:00,69.8,56.0,30.02,South,175,6.0,8.0,62,0.00,,,0.01,weatherlink.com 1.10,2013-04-06 23:39:00,
2013-04-06 19:09:00,68.4,56.0,30.02,South,183,1.0,6.0,65,0.00,,,0.01,weatherlink.com 1.10,2013-04-07 00:09:00,
2013-04-06 19:24:00,67.6,56.0,30.01,SE,145,0.0,7.0,67,0.00,,,0.01,weatherlink.com 1.10,2013-04-07 00:24:00,
2013-04-06 19:39:00,66.4,56.0,30.02,SSE,156,0.0,2.0,69,0.00,,,0.01,weatherlink.com 1.10,2013-04-07 00:39:00,
2013-04-06 20:09:00,63.6,56.0,30.02,SSE,167,0.0,2.0,75,0.00,,,0.01,weatherlink.com 1.10,2013-04-07 01:09:00,
2013-04-06 20:24:00,62.2,55.0,30.02,SSE,165,0.0,2.0,78,0.00,,,0.01,weatherlink.com 1.10,2013-04-07 01:24:00,
2013-04-06 20:39:00,61.5,55.0,30.03,SSE,164,0.0,3.0,80,0.00,,,0.01,weatherlink.com 1.10,2013-04-07 01:39:00,
2013-04-06 21:09:00,59.1,55.0,30.04,SSE,164,0.0,0.0,85,0.00,,,0.01,weatherlink.com 1.10,2013-04-07 02:09:00,
2013-04-06 21:24:00,58.2,55.0,30.04,SSE,164,0.0,0.0,88,0.00,,,0.01,weatherlink.com 1.10,2013-04-07 02:24:00,
2013-04-06 21:38:00,57.5,55.0,30.04,SSE,164,0.0,0.0,90,0.00,,,0.01,weatherlink.com 1.10,2013-04-07 02:38:00,
2013-04-06 21:54:00,56.8,54.0,30.05,SSE,164,0.0,0.0,91,0.00,,,0.01,weatherlink.com 1.10,2013-04-07 02:54:00,
2013-04-06 22:09:00,56.3,54.0,30.05,SSE,164,0.0,0.0,92,0.00,,,0.01,weatherlink.com 1.10,2013-04-07 03:09:00,
2013-04-06 22:24:00,56.0,54.0,30.05,SSE,164,0.0,0.0,93,0.00,,,0.01,weatherlink.com 1.10,2013-04-07 03:24:00,
2013-04-06 22:39:00,55.7,54.0,30.06,SSE,164,0.0,2.0,93,0.00,,,0.01,weatherlink.com 1.10,2013-04-07 03:39:00,
2013-04-06 22:54:00,55.5,54.0,30.06,SSE,164,0.0,0.0,94,0.00,,,0.01,weatherlink.com 1.10,2013-04-07 03:54:00,
2013-04-06 23:09:00,55.3,54.0,30.06,SSE,164,0.0,0.0,95,0.00,,,0.01,weatherlink.com 1.10,2013-04-07 04:09:00,
2013-04-06 23:24:00,55.1,54.0,30.05,SSE,164,0.0,0.0,95,0.00,,,0.01,weatherlink.com 1.10,2013-04-07 04:24:00,
2013-04-06 23:39:00,55.1,54.0,30.05,SSE,164,0.0,0.0,96,0.00,,,0.01,weatherlink.com 1.10,2013-04-07 04:39:00,